Time;durP1;ratioP1;P1;durP2;ratioP2;P2;SDS_P1;SDS_P2;PMS_P1;PMS_P2;Temp;Humidity;BMP_temperature;BMP_pressure;BME280_temperature;BME280_humidity;BME280_pressure;Samples;Min_cycle;Max_cycle;Signal;HPM_P1;HPM_P2
2022/07/03 00:01:29;;;;;;;5.82;2.72;;;18.90;99.90;;;;;;5050522;28;20083;-70
2022/07/03 00:03:57;;;;;;;5.88;2.78;;;18.90;99.90;;;;;;5068654;28;20055;-70
2022/07/03 00:06:26;;;;;;;3.88;2.65;;;18.90;99.90;;;;;;5095012;28;20643;-70
2022/07/03 00:08:51;;;;;;;4.90;2.83;;;18.90;99.90;;;;;;5088533;28;20446;-70
2022/07/03 00:11:17;;;;;;;5.78;2.80;;;18.80;99.90;;;;;;5070778;28;20456;-70
2022/07/03 00:13:43;;;;;;;4.85;2.70;;;18.80;99.90;;;;;;5070215;28;20036;-70
2022/07/03 00:16:08;;;;;;;8.13;3.33;;;18.80;99.90;;;;;;5068374;28;20477;-70
2022/07/03 00:18:34;;;;;;;6.53;3.25;;;18.70;99.90;;;;;;5068736;28;20055;-70
2022/07/03 00:21:02;;;;;;;4.43;3.00;;;18.70;99.90;;;;;;5067053;28;20044;-71
2022/07/03 00:23:34;;;;;;;5.50;3.30;;;18.60;99.90;;;;;;5079358;28;20051;-70
2022/07/03 00:26:03;;;;;;;5.53;2.90;;;18.60;99.90;;;;;;5086025;28;20497;-70
2022/07/03 00:28:30;;;;;;;6.88;3.03;;;18.60;99.90;;;;;;5069844;28;20354;-70
2022/07/03 00:30:57;;;;;;;7.40;3.15;;;18.50;99.90;;;;;;5087414;28;20066;-70
2022/07/03 00:33:26;;;;;;;6.30;3.33;;;18.50;99.90;;;;;;5070745;28;20087;-71
2022/07/03 00:35:54;;;;;;;6.18;3.30;;;18.50;99.90;;;;;;5081181;28;20124;-70
2022/07/03 00:38:23;;;;;;;9.27;3.30;;;18.70;99.90;;;;;;5043615;28;20047;-70
2022/07/03 00:40:49;;;;;;;6.45;4.03;;;18.50;99.90;;;;;;5085625;28;20036;-69
2022/07/03 00:43:17;;;;;;;9.45;3.47;;;18.40;99.90;;;;;;5072014;28;20510;-70
2022/07/03 00:45:47;;;;;;;8.85;3.42;;;18.30;99.90;;;;;;5087034;28;20055;-70
2022/07/03 00:48:15;;;;;;;5.85;3.40;;;18.40;99.90;;;;;;5049289;28;20524;-70
2022/07/03 00:50:46;;;;;;;6.18;3.30;;;18.30;99.90;;;;;;5049668;28;20048;-70
2022/07/03 00:53:13;;;;;;;6.32;3.45;;;18.20;99.90;;;;;;5079076;28;20048;-70
2022/07/03 00:55:42;;;;;;;6.05;3.25;;;18.20;99.90;;;;;;5071093;28;20198;-70
2022/07/03 00:58:09;;;;;;;7.15;3.50;;;18.20;99.90;;;;;;5072043;28;20039;-70
2022/07/03 01:00:40;;;;;;;6.53;3.65;;;18.20;99.90;;;;;;5053907;28;20032;-70
2022/07/03 01:03:07;;;;;;;6.45;3.63;;;18.20;99.90;;;;;;5086794;28;20404;-70
2022/07/03 01:05:39;;;;;;;6.57;3.70;;;18.40;99.90;;;;;;5087992;28;20039;-70
2022/07/03 01:08:05;;;;;;;9.02;5.28;;;18.10;99.90;;;;;;5052341;28;20523;-70
2022/07/03 01:10:54;;;;;;;12.32;7.00;;;18.10;99.90;;;;;;5076369;28;20053;-70
2022/07/03 01:13:39;;;;;;;11.25;6.28;;;18.10;99.90;;;;;;5051492;28;20055;-70
2022/07/03 01:16:37;;;;;;;9.80;5.40;;;18.10;99.90;;;;;;5068025;28;20458;-70
2022/07/03 01:19:37;;;;;;;8.80;4.28;;;18.00;99.90;;;;;;5034151;28;20041;-70
2022/07/03 01:22:26;;;;;;;8.45;4.13;;;17.90;99.90;;;;;;5060667;28;20057;-70
2022/07/03 01:25:22;;;;;;;6.57;4.20;;;17.80;99.90;;;;;;5069826;28;20132;-70
2022/07/03 01:28:16;;;;;;;8.15;4.13;;;17.80;99.90;;;;;;5068536;28;20135;-70
2022/07/03 01:30:52;;;;;;;9.70;4.00;;;17.80;99.90;;;;;;5069510;28;20056;-70
2022/07/03 01:33:26;;;;;;;5.95;4.07;;;17.80;99.90;;;;;;5083044;28;20102;-71
2022/07/03 01:35:58;;;;;;;8.30;3.92;;;17.80;99.90;;;;;;5070668;28;20439;-71
2022/07/03 01:38:27;;;;;;;8.20;3.90;;;17.80;99.90;;;;;;5071172;28;20044;-71
2022/07/03 01:40:55;;;;;;;6.93;3.90;;;17.80;99.90;;;;;;5087770;28;20040;-70
2022/07/03 01:43:33;;;;;;;7.13;4.00;;;17.80;99.90;;;;;;5070593;28;20404;-70
2022/07/03 01:46:01;;;;;;;5.50;3.80;;;17.70;99.90;;;;;;5071487;28;20040;-71
2022/07/03 01:48:28;;;;;;;8.57;3.85;;;17.70;99.90;;;;;;5083428;28;20036;-71
2022/07/03 01:50:56;;;;;;;6.60;3.67;;;17.70;99.90;;;;;;5074799;28;20093;-70
2022/07/03 01:53:25;;;;;;;7.43;3.92;;;17.80;99.90;;;;;;5073389;28;20119;-70
2022/07/03 01:55:56;;;;;;;6.72;3.90;;;17.80;99.90;;;;;;5078620;28;20445;-70
2022/07/03 01:58:22;;;;;;;9.27;4.25;;;17.80;99.90;;;;;;5059340;28;20040;-70
2022/07/03 02:01:10;;;;;;;6.85;4.05;;;17.90;99.90;;;;;;5071421;28;20061;-70
2022/07/03 02:03:41;;;;;;;7.63;4.10;;;17.80;99.90;;;;;;5072556;28;20072;-70
2022/07/03 02:06:28;;;;;;;8.27;4.20;;;17.80;99.90;;;;;;5069183;28;20131;-70
2022/07/03 02:09:00;;;;;;;7.53;3.70;;;17.80;99.90;;;;;;5089188;28;20052;-70
2022/07/03 02:11:28;;;;;;;7.07;4.18;;;17.80;99.90;;;;;;5089998;28;20044;-70
2022/07/03 02:14:13;;;;;;;5.50;3.85;;;17.80;99.90;;;;;;5073386;28;20119;-70
2022/07/03 02:17:08;;;;;;;5.40;3.95;;;17.80;99.90;;;;;;5089809;28;20050;-70
2022/07/03 02:19:55;;;;;;;7.10;3.87;;;17.70;99.90;;;;;;5053831;28;20040;-70
2022/07/03 02:22:40;;;;;;;6.47;3.90;;;17.70;99.90;;;;;;5036358;28;20044;-70
2022/07/03 02:25:31;;;;;;;6.28;4.00;;;17.70;99.90;;;;;;5071526;28;20438;-71
2022/07/03 02:28:04;;;;;;;7.30;4.30;;;17.70;99.90;;;;;;5090513;28;20040;-69
2022/07/03 02:30:30;;;;;;;7.10;4.10;;;17.60;99.90;;;;;;5090400;28;20063;-71
2022/07/03 02:32:58;;;;;;;7.07;3.83;;;17.70;99.90;;;;;;5085513;28;20048;-71
2022/07/03 02:35:32;;;;;;;6.82;4.13;;;17.70;99.90;;;;;;5072153;28;20355;-71
2022/07/03 02:38:11;;;;;;;8.23;4.20;;;17.90;99.90;;;;;;5070840;28;20102;-71
2022/07/03 02:40:45;;;;;;;9.95;4.18;;;17.60;99.90;;;;;;5051409;28;20048;-70
2022/07/03 02:43:26;;;;;;;6.43;4.50;;;17.60;99.90;;;;;;5083431;28;20143;-71
2022/07/03 02:46:48;;;;;;;5.53;4.00;;;17.60;99.90;;;;;;5086049;28;20132;-71
2022/07/03 02:48:50;;;;;;;7.88;4.03;;;17.50;99.90;;;;;;5069932;28;20060;-70
2022/07/03 02:51:22;;;;;;;6.38;4.35;;;17.50;99.90;;;;;;5068903;28;20132;-72
2022/07/03 02:53:59;;;;;;;8.60;4.35;;;17.60;99.90;;;;;;5066763;28;20045;-70
2022/07/03 02:56:50;;;;;;;6.78;3.90;;;17.40;99.90;;;;;;5087768;28;20032;-71
2022/07/03 02:59:32;;;;;;;7.47;4.40;;;17.40;99.90;;;;;;5070496;28;20037;-71
2022/07/03 03:02:07;;;;;;;7.00;4.00;;;17.40;99.90;;;;;;5069242;28;20046;-71
2022/07/03 03:04:34;;;;;;;8.37;4.47;;;17.30;99.90;;;;;;5070249;28;20177;-71
2022/07/03 03:07:12;;;;;;;7.88;4.47;;;17.30;99.90;;;;;;5069087;28;20043;-69
2022/07/03 03:09:47;;;;;;;5.47;4.03;;;17.20;99.90;;;;;;5049509;28;20067;-71
2022/07/03 03:12:13;;;;;;;7.28;4.10;;;17.20;99.90;;;;;;5063064;28;20051;-72
2022/07/03 03:14:41;;;;;;;7.63;4.30;;;17.30;99.90;;;;;;5069911;28;20135;-72
2022/07/03 03:17:08;;;;;;;6.80;4.20;;;17.10;99.90;;;;;;5073055;28;20047;-73
2022/07/03 03:19:41;;;;;;;6.95;4.13;;;17.30;99.90;;;;;;5090149;28;20062;-71
2022/07/03 03:22:29;;;;;;;6.20;4.00;;;17.20;99.90;;;;;;5087733;28;20039;-69
2022/07/03 03:24:55;;;;;;;5.90;4.30;;;17.20;99.90;;;;;;5090145;28;20062;-69
2022/07/03 03:27:21;;;;;;;6.05;3.90;;;17.20;99.90;;;;;;5087803;28;20047;-69
2022/07/03 03:29:47;;;;;;;6.80;3.95;;;17.20;99.90;;;;;;5078239;28;20037;-69
2022/07/03 03:32:14;;;;;;;7.43;4.25;;;17.30;99.90;;;;;;5085169;28;20506;-69
2022/07/03 03:34:41;;;;;;;6.85;4.30;;;17.20;99.90;;;;;;5088817;28;20075;-69
2022/07/03 03:37:06;;;;;;;7.30;4.28;;;17.30;99.90;;;;;;5086404;28;20134;-70
2022/07/03 03:39:32;;;;;;;6.53;4.20;;;17.30;99.90;;;;;;5088990;28;20115;-69
2022/07/03 03:42:00;;;;;;;7.93;4.53;;;17.20;99.90;;;;;;5088454;28;20067;-69
2022/07/03 03:44:26;;;;;;;7.45;4.18;;;17.30;99.90;;;;;;5088548;28;20361;-69
2022/07/03 03:46:52;;;;;;;7.30;4.30;;;17.30;99.90;;;;;;5089197;28;20052;-69
2022/07/03 03:49:18;;;;;;;8.85;4.13;;;17.30;99.90;;;;;;5089725;28;20039;-69
2022/07/03 03:51:44;;;;;;;6.43;4.60;;;17.50;99.90;;;;;;5068577;28;20464;-71
2022/07/03 03:54:10;;;;;;;7.25;4.30;;;17.40;99.90;;;;;;5089835;28;20118;-69
2022/07/03 03:56:35;;;;;;;11.77;4.57;;;17.40;99.90;;;;;;5058847;28;20053;-72
2022/07/03 03:59:01;;;;;;;7.18;4.40;;;17.30;99.90;;;;;;5080777;28;20488;-71
2022/07/03 04:01:27;;;;;;;7.55;4.60;;;17.30;99.90;;;;;;5087039;28;20543;-72
2022/07/03 04:03:52;;;;;;;7.80;4.63;;;17.30;99.90;;;;;;5087043;28;20051;-69
2022/07/03 04:06:19;;;;;;;7.82;4.50;;;17.30;99.90;;;;;;5087440;28;20044;-69
2022/07/03 04:08:45;;;;;;;7.57;4.00;;;17.20;99.90;;;;;;5074996;28;20401;-74
2022/07/03 04:11:11;;;;;;;6.95;4.22;;;17.20;99.90;;;;;;5038162;28;20052;-71
2022/07/03 04:13:36;;;;;;;6.50;4.30;;;17.20;99.90;;;;;;5079172;28;20044;-71
2022/07/03 04:16:02;;;;;;;7.20;4.50;;;17.20;99.90;;;;;;5049987;28;20404;-72
2022/07/03 04:18:28;;;;;;;7.28;4.63;;;17.20;99.90;;;;;;5045887;28;20125;-72
2022/07/03 04:20:53;;;;;;;6.65;4.53;;;17.40;99.90;;;;;;5058998;28;20052;-72
2022/07/03 04:23:19;;;;;;;7.47;4.30;;;17.20;99.90;;;;;;5036216;28;20072;-72
2022/07/03 04:25:45;;;;;;;8.57;4.90;;;17.20;99.90;;;;;;5048113;28;20052;-71
2022/07/03 04:28:11;;;;;;;7.15;4.55;;;17.20;99.90;;;;;;5048378;28;20148;-71
2022/07/03 04:30:36;;;;;;;9.77;4.75;;;17.30;99.90;;;;;;5048434;28;20148;-72
2022/07/03 04:33:02;;;;;;;9.48;5.03;;;17.30;99.90;;;;;;5047597;28;20048;-72
2022/07/03 04:35:27;;;;;;;7.18;4.70;;;17.30;99.90;;;;;;5055016;28;20047;-69
2022/07/03 04:37:53;;;;;;;6.63;4.10;;;17.30;99.90;;;;;;5067521;28;20458;-70
2022/07/03 04:40:19;;;;;;;7.45;4.57;;;17.40;99.90;;;;;;5067827;28;20053;-69
2022/07/03 04:42:45;;;;;;;8.93;4.63;;;17.40;99.90;;;;;;5069882;28;20131;-69
2022/07/03 04:45:10;;;;;;;7.28;4.38;;;17.50;99.90;;;;;;5068195;28;20056;-69
2022/07/03 04:47:36;;;;;;;7.22;3.90;;;17.40;99.90;;;;;;5049315;28;20112;-69
2022/07/03 04:50:02;;;;;;;6.95;4.28;;;17.50;99.90;;;;;;5068639;28;20101;-72
2022/07/03 04:52:28;;;;;;;6.75;4.20;;;17.50;99.90;;;;;;5066654;28;20037;-69
2022/07/03 04:54:53;;;;;;;7.95;3.85;;;17.50;99.90;;;;;;5067742;28;20064;-69
2022/07/03 04:57:19;;;;;;;9.02;4.28;;;17.60;99.90;;;;;;5067840;28;20055;-69
2022/07/03 04:59:46;;;;;;;6.68;4.10;;;17.50;99.90;;;;;;5051013;28;20132;-69
2022/07/03 05:02:12;;;;;;;6.43;3.90;;;17.50;99.90;;;;;;5068174;28;20429;-69
2022/07/03 05:04:37;;;;;;;5.10;3.63;;;17.60;99.90;;;;;;5049941;28;20083;-69
2022/07/03 05:07:03;;;;;;;7.38;3.58;;;17.60;99.90;;;;;;5066912;28;20101;-69
2022/07/03 05:09:29;;;;;;;6.60;3.70;;;17.60;99.90;;;;;;5066937;28;20044;-69
2022/07/03 05:11:55;;;;;;;7.65;3.75;;;17.60;99.90;;;;;;5066881;28;20075;-69
2022/07/03 05:14:20;;;;;;;6.82;3.50;;;17.70;99.90;;;;;;5067679;28;20049;-69
2022/07/03 05:16:46;;;;;;;6.20;3.22;;;17.70;99.90;;;;;;5067574;28;20535;-69
2022/07/03 05:19:11;;;;;;;4.57;3.10;;;17.70;99.90;;;;;;5068306;28;20048;-69
2022/07/03 05:21:37;;;;;;;6.53;3.22;;;17.70;99.90;;;;;;5065898;28;20056;-69
2022/07/03 05:24:03;;;;;;;6.07;2.83;;;17.80;99.90;;;;;;5049490;28;20477;-69
2022/07/03 05:26:29;;;;;;;4.45;2.78;;;17.80;99.90;;;;;;5067219;28;20088;-69
2022/07/03 05:28:54;;;;;;;4.90;2.75;;;17.90;99.90;;;;;;5067329;28;20048;-69
2022/07/03 05:31:20;;;;;;;4.78;2.50;;;17.90;99.90;;;;;;5066977;28;20052;-69
2022/07/03 05:33:46;;;;;;;5.82;2.28;;;18.00;99.90;;;;;;5068638;28;20055;-69
2022/07/03 05:36:11;;;;;;;6.32;2.28;;;18.00;99.90;;;;;;5047644;28;20048;-72
2022/07/03 05:41:21;;;;;;;3.95;2.45;;;18.20;99.90;;;;;;5066856;28;20048;-69
2022/07/03 05:43:47;;;;;;;4.28;2.30;;;18.30;99.90;;;;;;5054360;28;20110;-69
2022/07/03 05:46:12;;;;;;;4.70;2.03;;;18.50;99.90;;;;;;5052030;28;20033;-70
2022/07/03 05:48:38;;;;;;;5.13;2.13;;;18.60;99.90;;;;;;5069530;28;20442;-72
2022/07/03 05:51:04;;;;;;;5.32;2.40;;;18.70;99.90;;;;;;5050453;28;20097;-71
2022/07/03 05:53:30;;;;;;;4.47;2.22;;;18.80;99.90;;;;;;5069827;28;20113;-70
2022/07/03 05:55:56;;;;;;;4.35;2.28;;;18.90;99.90;;;;;;5066622;28;20040;-71
2022/07/03 05:58:21;;;;;;;5.15;2.20;;;19.00;99.90;;;;;;5032094;28;20044;-70
2022/07/03 06:00:47;;;;;;;4.45;2.25;;;19.00;99.90;;;;;;5067999;28;20040;-70
2022/07/03 06:03:13;;;;;;;6.60;2.60;;;19.00;99.90;;;;;;5068168;28;20481;-70
2022/07/03 06:05:38;;;;;;;5.15;2.70;;;19.10;99.90;;;;;;5067566;28;20037;-70
2022/07/03 06:08:04;;;;;;;5.13;2.58;;;19.10;99.90;;;;;;5047825;28;20080;-71
2022/07/03 06:10:31;;;;;;;4.60;2.85;;;19.20;99.90;;;;;;5067880;28;20045;-70
2022/07/03 06:12:57;;;;;;;4.60;2.67;;;19.30;99.90;;;;;;5069964;28;20052;-71
2022/07/03 06:15:22;;;;;;;4.72;2.63;;;19.30;99.90;;;;;;5068131;28;20452;-70
2022/07/03 06:17:48;;;;;;;4.07;2.50;;;19.40;99.90;;;;;;5049037;28;20047;-70
2022/07/03 06:20:14;;;;;;;4.47;2.28;;;19.40;99.90;;;;;;5048179;28;20854;-71
2022/07/03 06:22:40;;;;;;;4.13;2.08;;;19.50;99.90;;;;;;5049649;28;20115;-70
2022/07/03 06:25:06;;;;;;;3.05;2.00;;;19.50;99.90;;;;;;5062593;28;20036;-70
2022/07/03 06:27:33;;;;;;;4.18;1.80;;;19.50;99.90;;;;;;5069954;28;20049;-70
2022/07/03 06:30:03;;;;;;;4.55;2.08;;;19.50;99.90;;;;;;5070902;28;20056;-70
2022/07/03 06:32:29;;;;;;;4.10;1.90;;;19.50;99.90;;;;;;5064723;28;20126;-71
2022/07/03 06:34:54;;;;;;;3.67;1.95;;;19.50;99.90;;;;;;5033303;28;20494;-71
2022/07/03 06:37:21;;;;;;;4.22;1.90;;;19.50;99.90;;;;;;5049390;28;20106;-71
2022/07/03 06:39:47;;;;;;;2.72;1.70;;;19.50;99.90;;;;;;5042834;28;20117;-70
2022/07/03 06:42:13;;;;;;;5.30;1.98;;;19.50;99.90;;;;;;5051935;28;20445;-71
2022/07/03 06:44:39;;;;;;;4.43;2.00;;;19.70;99.90;;;;;;5070122;28;20481;-69
2022/07/03 06:47:04;;;;;;;4.07;2.08;;;19.80;99.90;;;;;;5069885;28;20078;-68
2022/07/03 06:49:34;;;;;;;5.43;1.75;;;19.80;99.90;;;;;;5070367;28;20037;-69
2022/07/03 06:52:00;;;;;;;4.78;1.80;;;20.00;99.90;;;;;;5068609;28;20044;-69
2022/07/03 06:54:26;;;;;;;6.80;1.77;;;20.00;99.90;;;;;;5058218;28;20037;-69
2022/07/03 06:56:52;;;;;;;3.67;1.60;;;20.10;99.90;;;;;;5049930;28;20041;-67
2022/07/03 06:59:17;;;;;;;2.88;1.60;;;20.10;99.90;;;;;;5050388;28;20045;-68
2022/07/03 07:01:43;;;;;;;4.15;1.50;;;20.00;99.90;;;;;;5049079;28;20052;-68
2022/07/03 07:04:08;;;;;;;3.05;1.60;;;20.00;99.90;;;;;;5050414;28;20041;-68
2022/07/03 07:06:34;;;;;;;4.57;2.03;;;20.00;99.90;;;;;;5050771;28;20508;-68
2022/07/03 07:09:00;;;;;;;5.32;1.80;;;20.00;99.90;;;;;;5069186;28;20493;-68
2022/07/03 07:11:26;;;;;;;5.45;1.83;;;19.90;99.90;;;;;;5067880;28;20540;-68
2022/07/03 07:13:51;;;;;;;4.97;1.80;;;20.00;99.90;;;;;;5053575;28;20036;-68
2022/07/03 07:16:17;;;;;;;6.53;1.80;;;20.10;99.90;;;;;;5051423;28;20056;-68
2022/07/03 07:18:43;;;;;;;3.70;1.90;;;20.20;99.90;;;;;;5069982;28;20071;-67
2022/07/03 07:21:10;;;;;;;3.58;1.90;;;20.30;99.90;;;;;;5049564;28;20152;-67
2022/07/03 07:23:36;;;;;;;4.88;1.85;;;20.40;99.90;;;;;;5069890;28;20160;-70
2022/07/03 07:26:02;;;;;;;4.78;1.98;;;20.50;99.90;;;;;;5050609;28;20497;-70
2022/07/03 07:28:28;;;;;;;3.90;1.98;;;20.50;99.90;;;;;;5051233;28;20481;-70
2022/07/03 07:30:54;;;;;;;4.80;1.90;;;20.40;99.90;;;;;;5050905;28;20055;-68
2022/07/03 07:33:21;;;;;;;2.40;1.73;;;20.40;99.90;;;;;;5050106;28;20052;-69
2022/07/03 07:35:46;;;;;;;3.85;2.10;;;20.40;99.90;;;;;;5069196;28;20036;-68
2022/07/03 07:38:12;;;;;;;4.70;1.98;;;20.40;99.90;;;;;;5067768;28;20119;-69
2022/07/03 07:40:38;;;;;;;4.82;1.95;;;20.40;99.90;;;;;;5069501;28;20400;-68
2022/07/03 07:43:04;;;;;;;3.25;1.70;;;20.60;99.90;;;;;;5061231;28;20048;-68
2022/07/03 07:45:29;;;;;;;4.22;1.98;;;20.50;99.90;;;;;;5049338;28;20091;-68
2022/07/03 07:47:55;;;;;;;5.13;1.92;;;20.60;99.90;;;;;;5031014;28;20391;-68
2022/07/03 07:50:20;;;;;;;13.70;2.42;;;20.70;99.90;;;;;;5063477;28;20331;-69
2022/07/03 07:52:46;;;;;;;4.00;2.10;;;20.70;99.90;;;;;;5052068;28;20087;-68
2022/07/03 07:55:12;;;;;;;3.47;2.20;;;20.80;99.90;;;;;;5050962;28;20441;-68
2022/07/03 07:57:39;;;;;;;4.80;2.17;;;20.80;99.90;;;;;;5067541;28;20044;-69
2022/07/03 08:00:10;;;;;;;4.70;1.92;;;20.90;99.90;;;;;;5069250;28;20060;-69
2022/07/03 08:05:35;;;;;;;4.47;1.63;;;21.10;99.90;;;;;;5051337;28;20063;-69
2022/07/03 08:08:02;;;;;;;4.82;1.70;;;21.30;99.90;;;;;;5050187;28;20117;-69
2022/07/03 08:10:27;;;;;;;3.30;1.60;;;21.20;99.90;;;;;;5068221;28;20043;-68
2022/07/03 08:12:53;;;;;;;3.38;1.30;;;21.10;99.90;;;;;;5050067;28;20452;-69
2022/07/03 08:15:19;;;;;;;3.72;1.80;;;21.10;99.90;;;;;;5068533;28;20049;-68
2022/07/03 08:17:44;;;;;;;3.83;1.70;;;21.20;99.90;;;;;;5067696;28;20043;-69
2022/07/03 08:20:10;;;;;;;3.70;1.67;;;21.10;99.90;;;;;;5068774;28;20080;-68
2022/07/03 08:22:36;;;;;;;2.97;1.50;;;21.10;99.90;;;;;;5067054;28;20044;-68
2022/07/03 08:25:02;;;;;;;3.65;1.50;;;21.20;99.90;;;;;;5067475;28;20418;-68
2022/07/03 08:27:28;;;;;;;1.90;1.30;;;21.10;99.90;;;;;;5068628;28;20413;-68
2022/07/03 08:29:53;;;;;;;3.10;1.50;;;21.20;99.90;;;;;;5068138;28;20048;-69
2022/07/03 08:32:19;;;;;;;3.35;1.45;;;21.10;99.90;;;;;;5049855;28;20139;-68
2022/07/03 08:34:44;;;;;;;4.43;1.70;;;21.10;99.90;;;;;;5068559;28;20068;-68
2022/07/03 08:37:10;;;;;;;4.30;1.55;;;21.10;99.90;;;;;;5063737;28;20072;-68
2022/07/03 08:39:36;;;;;;;2.92;1.60;;;21.00;99.90;;;;;;5067414;28;20040;-69
2022/07/03 08:42:02;;;;;;;4.50;1.50;;;21.10;99.90;;;;;;5049612;28;20052;-69
2022/07/03 08:44:28;;;;;;;3.85;1.50;;;21.10;99.90;;;;;;5068217;28;20085;-80
2022/07/03 08:46:55;;;;;;;7.18;1.50;;;21.20;99.90;;;;;;5071742;28;20067;-80
2022/07/03 08:49:23;;;;;;;3.78;1.40;;;21.30;99.90;;;;;;5070349;28;20048;-79
2022/07/03 08:51:49;;;;;;;4.57;1.35;;;21.40;99.90;;;;;;5053385;28;20044;-80
2022/07/03 08:54:15;;;;;;;3.17;1.35;;;21.40;99.90;;;;;;5066407;28;20048;-79
2022/07/03 08:56:42;;;;;;;3.05;1.30;;;21.40;99.90;;;;;;5068463;28;20128;-79
2022/07/03 08:59:08;;;;;;;2.55;1.00;;;21.40;99.90;;;;;;5070692;28;20052;-78
2022/07/03 09:01:34;;;;;;;5.65;1.25;;;21.60;99.90;;;;;;5068502;28;20039;-83
2022/07/03 09:04:01;;;;;;;2.05;1.00;;;21.60;99.90;;;;;;5089465;28;20105;-83
2022/07/03 09:06:33;;;;;;;2.10;1.30;;;21.90;99.90;;;;;;5085189;28;20050;-84
2022/07/03 09:09:02;;;;;;;4.28;1.10;;;21.90;99.90;;;;;;5071502;28;20098;-83
2022/07/03 09:11:28;;;;;;;2.65;1.20;;;22.10;99.90;;;;;;5068078;28;20044;-84
2022/07/03 09:13:54;;;;;;;2.63;1.20;;;22.10;99.90;;;;;;5050811;28;20052;-83
2022/07/03 09:16:19;;;;;;;2.50;1.27;;;22.20;99.90;;;;;;5049999;28;20507;-82
2022/07/03 09:18:45;;;;;;;4.38;1.10;;;22.20;99.90;;;;;;5072822;28;20444;-82
2022/07/03 09:21:12;;;;;;;1.65;0.98;;;22.30;99.90;;;;;;5078571;28;20028;-82
2022/07/03 09:23:43;;;;;;;2.25;1.00;;;22.50;99.90;;;;;;5063734;28;20091;-85
2022/07/03 09:26:17;;;;;;;2.67;1.17;;;22.70;99.90;;;;;;5085759;28;20171;-83
2022/07/03 09:28:53;;;;;;;3.70;1.10;;;23.00;99.90;;;;;;5066405;28;20158;-83
2022/07/03 09:31:27;;;;;;;2.58;1.10;;;23.20;99.70;;;;;;5067428;28;20064;-83
2022/07/03 09:34:10;;;;;;;2.47;1.10;;;23.40;98.90;;;;;;5049968;28;20080;-82
2022/07/03 09:36:50;;;;;;;3.00;1.10;;;23.30;98.70;;;;;;5066373;28;20135;-82
2022/07/03 09:39:19;;;;;;;4.72;1.10;;;23.40;99.40;;;;;;5083299;28;20045;-83
2022/07/03 09:41:59;;;;;;;3.25;1.20;;;23.50;99.30;;;;;;5067142;28;20072;-82
2022/07/03 09:44:40;;;;;;;2.70;1.10;;;23.50;98.90;;;;;;5068282;28;20074;-82
2022/07/03 09:47:09;;;;;;;2.33;1.15;;;23.50;99.20;;;;;;5058855;28;20431;-82
2022/07/03 09:49:54;;;;;;;2.95;1.27;;;23.60;99.20;;;;;;5070094;28;20048;-82
2022/07/03 09:52:36;;;;;;;3.22;1.10;;;23.70;98.60;;;;;;5070061;28;20036;-83
2022/07/03 09:55:17;;;;;;;1.85;1.13;;;23.90;98.90;;;;;;5069341;28;20041;-83
2022/07/03 09:57:43;;;;;;;2.67;1.20;;;24.20;98.80;;;;;;5078889;28;20051;-83
2022/07/03 10:00:23;;;;;;;1.95;1.00;;;24.50;98.70;;;;;;5073840;28;20044;-83
2022/07/03 10:03:06;;;;;;;2.60;0.90;;;24.50;98.60;;;;;;5069550;28;20182;-83
2022/07/03 10:05:38;;;;;;;2.75;1.00;;;24.90;98.40;;;;;;5071532;28;20440;-84
2022/07/03 10:08:10;;;;;;;2.13;1.08;;;25.00;98.10;;;;;;5064011;28;20084;-83
2022/07/03 10:10:38;;;;;;;3.08;1.13;;;25.80;98.10;;;;;;5082080;28;20044;-82
2022/07/03 10:13:05;;;;;;;2.45;1.20;;;25.90;97.20;;;;;;5073696;28;20032;-81
2022/07/03 10:15:32;;;;;;;2.10;1.10;;;25.60;97.00;;;;;;5068673;28;20056;-71
2022/07/03 10:17:59;;;;;;;2.53;1.17;;;25.10;97.50;;;;;;5089082;28;20121;-71
2022/07/03 10:20:28;;;;;;;3.95;1.33;;;25.30;97.90;;;;;;5089959;28;20088;-71
2022/07/03 10:22:54;;;;;;;2.65;1.30;;;27.90;96.80;;;;;;5071150;28;20043;-71
2022/07/03 10:25:20;;;;;;;2.65;1.30;;;31.00;94.30;;;;;;5071745;28;20047;-72
2022/07/03 10:27:47;;;;;;;2.40;1.10;;;33.00;91.70;;;;;;5090289;28;20146;-71
2022/07/03 10:30:20;;;;;;;1.80;1.10;;;32.60;90.50;;;;;;5089928;28;20063;-71
2022/07/03 10:32:47;;;;;;;4.95;1.10;;;33.70;88.70;;;;;;5089996;28;20048;-72
2022/07/03 10:35:19;;;;;;;2.83;1.05;;;34.00;87.90;;;;;;5090740;28;20044;-71
2022/07/03 10:38:03;;;;;;;2.95;1.50;;;35.90;86.20;;;;;;5071164;28;20133;-72
2022/07/03 10:46:29;;;;;;;2.35;1.08;;;38.30;76.80;;;;;;5048717;28;20123;-71
2022/07/03 10:48:59;;;;;;;3.90;1.48;;;39.20;76.70;;;;;;5048519;28;20044;-72
2022/07/03 10:51:27;;;;;;;3.60;1.17;;;40.20;75.10;;;;;;5047230;28;20505;-72
2022/07/03 10:54:14;;;;;;;1.88;1.10;;;39.40;71.50;;;;;;5031481;28;20489;-71
2022/07/03 10:56:58;;;;;;;2.78;1.15;;;38.50;70.30;;;;;;5048756;28;20049;-72
2022/07/03 10:59:36;;;;;;;2.58;1.17;;;37.00;71.30;;;;;;5048439;28;20134;-71
2022/07/03 11:02:26;;;;;;;5.18;1.38;;;35.70;72.00;;;;;;5049918;28;20151;-70
2022/07/03 11:04:58;;;;;;;3.30;1.27;;;34.80;71.70;;;;;;5049913;28;20171;-71
2022/07/03 11:07:32;;;;;;;2.85;1.20;;;34.50;72.40;;;;;;5030892;28;20515;-70
2022/07/03 11:10:12;;;;;;;3.70;1.33;;;33.70;72.50;;;;;;5051116;28;20138;-71
2022/07/03 11:12:57;;;;;;;2.38;1.02;;;31.90;74.60;;;;;;5048653;28;20049;-71
2022/07/03 11:15:42;;;;;;;2.50;1.08;;;31.50;75.40;;;;;;5031792;28;20124;-71
2022/07/03 11:18:11;;;;;;;5.22;1.40;;;30.60;76.30;;;;;;5050449;28;20419;-71
2022/07/03 11:20:39;;;;;;;3.85;1.10;;;29.90;77.50;;;;;;5068142;28;20131;-71
2022/07/03 11:23:23;;;;;;;2.33;1.20;;;29.30;78.90;;;;;;5068514;28;20040;-71
2022/07/03 11:25:50;;;;;;;2.70;1.20;;;29.10;80.10;;;;;;5085746;28;20088;-71
2022/07/03 11:28:34;;;;;;;3.97;1.38;;;29.00;80.90;;;;;;5068431;28;20033;-70
2022/07/03 11:33:55;;;;;;;3.08;1.40;;;28.40;82.70;;;;;;5069788;28;20139;-73
2022/07/03 11:36:26;;;;;;;6.30;1.70;;;28.90;83.20;;;;;;5082727;28;20493;-71
2022/07/03 11:38:57;;;;;;;3.60;1.35;;;28.70;83.70;;;;;;5051686;28;20056;-73
2022/07/03 11:41:25;;;;;;;4.30;1.38;;;28.50;84.00;;;;;;5067677;28;20044;-73
2022/07/03 11:43:52;;;;;;;4.47;1.38;;;27.80;85.00;;;;;;5069582;28;20059;-70
2022/07/03 11:46:20;;;;;;;3.45;1.30;;;27.60;85.70;;;;;;5070475;28;20311;-70
2022/07/03 11:48:46;;;;;;;2.97;1.20;;;27.80;85.60;;;;;;5069012;28;20413;-73
2022/07/03 11:51:12;;;;;;;4.57;1.70;;;30.10;85.30;;;;;;5067368;28;20044;-71
2022/07/03 11:53:39;;;;;;;4.97;1.70;;;32.80;84.90;;;;;;5069417;28;20043;-70
2022/07/03 11:56:10;;;;;;;5.07;1.63;;;34.70;82.40;;;;;;5049488;28;20056;-73
2022/07/03 11:58:44;;;;;;;5.65;2.08;;;34.20;81.40;;;;;;5069162;28;20154;-70
2022/07/03 12:01:28;;;;;;;5.95;1.80;;;34.60;81.90;;;;;;5068232;28;20187;-71
2022/07/03 12:04:14;;;;;;;7.07;1.83;;;35.00;80.30;;;;;;5068788;28;20438;-70
2022/07/03 12:06:43;;;;;;;5.60;1.52;;;33.80;81.20;;;;;;5069351;28;20056;-71
2022/07/03 12:09:19;;;;;;;4.30;1.55;;;32.40;81.40;;;;;;5068597;28;20074;-71
2022/07/03 12:12:10;;;;;;;6.50;1.63;;;31.30;81.40;;;;;;5049809;28;20079;-72
2022/07/03 12:14:43;;;;;;;4.10;1.50;;;30.00;83.10;;;;;;5067909;28;20056;-72
2022/07/03 12:17:12;;;;;;;4.10;1.50;;;28.70;85.90;;;;;;5049510;28;20109;-72
2022/07/03 12:19:43;;;;;;;3.95;1.40;;;28.20;87.00;;;;;;5067625;28;20061;-71
2022/07/03 12:22:09;;;;;;;4.03;1.35;;;28.00;87.20;;;;;;5067166;28;20041;-72
2022/07/03 12:24:35;;;;;;;4.40;1.33;;;27.70;86.70;;;;;;5049606;28;20476;-72
2022/07/03 12:27:03;;;;;;;4.43;1.40;;;27.50;87.20;;;;;;5069216;28;20461;-72
2022/07/03 12:29:29;;;;;;;4.68;1.35;;;27.50;87.40;;;;;;5068251;28;20045;-72
2022/07/03 12:31:56;;;;;;;4.90;1.40;;;27.50;88.00;;;;;;5049447;28;20516;-72
2022/07/03 12:34:21;;;;;;;5.90;1.63;;;27.40;88.10;;;;;;5068220;28;20086;-72
2022/07/03 12:37:00;;;;;;;5.18;1.60;;;27.50;88.80;;;;;;5066892;28;20048;-72
2022/07/03 12:39:45;;;;;;;6.43;1.70;;;27.30;90.30;;;;;;5067031;28;20072;-71
2022/07/03 12:42:23;;;;;;;;;;;27.20;90.30;;;;;;5049622;28;20048;-71
2022/07/03 12:45:03;;;;;;;4.10;1.50;;;27.00;90.20;;;;;;5047243;28;19920;-71
2022/07/03 12:47:30;;;;;;;6.15;1.73;;;26.80;90.30;;;;;;5047687;28;20045;-71
2022/07/03 12:50:01;;;;;;;2.83;1.30;;;26.70;90.60;;;;;;5049974;28;20394;-71
2022/07/03 12:52:27;;;;;;;4.38;1.40;;;26.60;90.70;;;;;;5045384;28;20129;-71
2022/07/03 12:54:54;;;;;;;4.95;1.58;;;26.50;91.00;;;;;;5030305;28;20068;-71
2022/07/03 13:00:11;;;;;;;5.82;1.50;;;26.50;91.70;;;;;;5067504;28;20044;-71
2022/07/03 13:02:38;;;;;;;5.22;1.70;;;26.20;92.30;;;;;;5052722;28;20072;-71
2022/07/03 13:05:17;;;;;;;5.60;1.70;;;26.10;92.40;;;;;;5050568;28;20036;-72
2022/07/03 13:07:44;;;;;;;8.48;1.80;;;26.10;93.20;;;;;;5046604;28;20065;-71
2022/07/03 13:10:10;;;;;;;7.25;1.80;;;26.00;93.10;;;;;;5047811;28;20124;-72
2022/07/03 13:12:52;;;;;;;4.05;1.50;;;25.90;93.50;;;;;;5046456;28;20072;-72
2022/07/03 13:15:21;;;;;;;3.88;1.60;;;26.00;93.40;;;;;;5053016;28;20044;-71
2022/07/03 13:17:55;;;;;;;4.40;1.42;;;26.30;93.30;;;;;;5067095;28;20466;-71
2022/07/03 13:20:32;;;;;;;4.55;1.70;;;26.30;93.20;;;;;;5047058;28;20124;-72